Time,TemperatureF,DewpointF,PressureIn,WindDirection,WindDirectionDegrees,WindSpeedMPH,WindSpeedGustMPH,Humidity,HourlyPrecipIn,Conditions,Clouds,dailyrainin,SoftwareType,DateUTC
2013-04-24 00:05:00,38.8,36.4,29.35,NNE,12,0.0,0.0,91,0.00,,,0.00,Wunderground v.1.15,2013-04-24 04:05:00,
2013-04-24 00:10:00,38.8,36.4,29.34,NNE,12,0.0,0.0,91,0.00,,,0.00,Wunderground v.1.15,2013-04-24 04:10:00,
2013-04-24 00:15:00,38.8,36.4,29.34,NNE,12,0.0,0.0,91,0.00,,,0.00,Wunderground v.1.15,2013-04-24 04:15:00,
2013-04-24 00:25:00,38.8,36.4,29.33,NNE,12,0.0,0.0,91,0.00,,,0.00,Wunderground v.1.15,2013-04-24 04:25:00,
2013-04-24 00:30:00,38.9,36.5,29.33,NNE,12,0.0,0.0,91,0.00,,,0.00,Wunderground v.1.15,2013-04-24 04:30:00,
2013-04-24 00:40:00,39.0,36.6,29.32,NNE,12,0.0,0.0,91,0.00,,,0.00,Wunderground v.1.15,2013-04-24 04:40:00,
2013-04-24 00:50:00,39.0,36.6,29.32,NNE,12,0.0,0.0,91,0.00,,,0.00,Wunderground v.1.15,2013-04-24 04:50:00,
2013-04-24 01:00:00,39.1,36.7,29.31,NNE,12,0.0,0.0,91,0.00,,,0.00,Wunderground v.1.15,2013-04-24 05:00:00,
2013-04-24 01:05:00,39.2,36.8,29.30,NNE,12,0.0,0.0,91,0.00,,,0.00,Wunderground v.1.15,2013-04-24 05:05:00,
2013-04-24 01:15:00,39.3,36.9,29.30,NNE,12,0.0,0.0,91,0.00,,,0.00,Wunderground v.1.15,2013-04-24 05:15:00,
2013-04-24 01:25:00,39.4,37.0,29.30,NNE,12,0.0,0.0,91,0.00,,,0.00,Wunderground v.1.15,2013-04-24 05:25:00,
2013-04-24 01:30:00,39.4,37.0,29.30,NNE,12,0.0,0.0,91,0.00,,,0.00,Wunderground v.1.15,2013-04-24 05:30:00,
2013-04-24 01:35:00,39.4,37.0,29.30,NNE,12,0.0,0.0,91,0.00,,,0.00,Wunderground v.1.15,2013-04-24 05:35:00,
2013-04-24 01:40:00,39.4,37.0,29.30,NNE,12,0.0,0.0,91,0.00,,,0.00,Wunderground v.1.15,2013-04-24 05:40:00,
2013-04-24 01:50:00,39.5,37.4,29.29,NNE,12,0.0,0.0,92,0.00,,,0.00,Wunderground v.1.15,2013-04-24 05:50:00,
2013-04-24 01:55:00,39.6,37.5,29.29,NNE,12,0.0,0.0,92,0.00,,,0.00,Wunderground v.1.15,2013-04-24 05:55:00,
2013-04-24 02:05:00,39.6,37.5,29.29,NNE,12,0.0,0.0,92,0.00,,,0.00,Wunderground v.1.15,2013-04-24 06:05:00,
2013-04-24 02:15:00,39.6,37.5,29.28,NNE,12,0.0,0.0,92,0.00,,,0.00,Wunderground v.1.15,2013-04-24 06:15:00,
2013-04-24 02:20:00,39.6,37.5,29.29,NNE,12,0.0,0.0,92,0.00,,,0.00,Wunderground v.1.15,2013-04-24 06:20:00,
2013-04-24 02:30:00,39.6,37.5,29.28,NNE,12,0.0,0.0,92,0.00,,,0.00,Wunderground v.1.15,2013-04-24 06:30:00,
2013-04-24 02:35:00,39.6,37.7,29.28,NNE,12,0.0,0.0,93,0.00,,,0.00,Wunderground v.1.15,2013-04-24 06:35:00,
2013-04-24 02:45:00,39.6,37.7,29.27,NNE,12,0.0,0.0,93,0.00,,,0.00,Wunderground v.1.15,2013-04-24 06:45:00,
2013-04-24 02:55:00,39.6,37.7,29.27,NNE,12,0.0,0.0,93,0.00,,,0.00,Wunderground v.1.15,2013-04-24 06:55:00,
2013-04-24 03:05:00,39.6,38.0,29.26,NNE,12,0.0,0.0,94,0.00,,,0.00,Wunderground v.1.15,2013-04-24 07:05:00,
2013-04-24 03:10:00,39.6,38.0,29.26,NNE,12,0.0,0.0,94,0.00,,,0.00,Wunderground v.1.15,2013-04-24 07:10:00,
2013-04-24 03:20:00,39.6,38.0,29.25,NNE,12,0.0,0.0,94,0.00,,,0.00,Wunderground v.1.15,2013-04-24 07:20:00,
2013-04-24 03:30:00,39.6,38.0,29.25,NNE,12,0.0,0.0,94,0.00,,,0.00,Wunderground v.1.15,2013-04-24 07:30:00,
2013-04-24 03:40:00,39.6,38.0,29.25,NNE,12,0.0,0.0,94,0.00,,,0.00,Wunderground v.1.15,2013-04-24 07:40:00,
2013-04-24 03:45:00,39.6,38.0,29.25,NNE,12,0.0,0.0,94,0.00,,,0.00,Wunderground v.1.15,2013-04-24 07:45:00,
2013-04-24 03:55:00,39.5,37.9,29.25,NNE,12,0.0,0.0,94,0.00,,,0.00,Wunderground v.1.15,2013-04-24 07:55:00,
2013-04-24 04:05:00,39.6,38.0,29.25,NNE,12,0.0,0.0,94,0.00,,,0.00,Wunderground v.1.15,2013-04-24 08:05:00,
2013-04-24 04:10:00,39.6,38.0,29.25,NNE,12,0.0,0.0,94,0.00,,,0.00,Wunderground v.1.15,2013-04-24 08:10:00,
2013-04-24 04:20:00,39.6,38.0,29.25,NNE,12,0.0,0.0,94,0.00,,,0.00,Wunderground v.1.15,2013-04-24 08:20:00,
2013-04-24 04:25:00,39.6,38.0,29.25,NNE,12,0.0,0.0,94,0.00,,,0.00,Wunderground v.1.15,2013-04-24 08:25:00,
2013-04-24 04:35:00,39.6,38.0,29.25,NNE,12,0.0,0.0,94,0.00,,,0.00,Wunderground v.1.15,2013-04-24 08:35:00,
2013-04-24 04:45:00,39.6,38.0,29.24,NNE,12,0.0,0.0,94,0.00,,,0.00,Wunderground v.1.15,2013-04-24 08:45:00,
2013-04-24 04:55:00,39.6,38.0,29.24,NNE,12,0.0,0.0,94,0.00,,,0.00,Wunderground v.1.15,2013-04-24 08:55:00,
2013-04-24 05:00:00,39.7,38.1,29.23,NNE,12,0.0,0.0,94,0.00,,,0.00,Wunderground v.1.15,2013-04-24 09:00:00,
2013-04-24 05:10:00,39.7,38.1,29.23,NNE,12,0.0,0.0,94,0.00,,,0.00,Wunderground v.1.15,2013-04-24 09:10:00,
2013-04-24 05:15:00,39.7,38.1,29.23,NNE,12,0.0,0.0,94,0.00,,,0.00,Wunderground v.1.15,2013-04-24 09:15:00,
2013-04-24 05:25:00,39.8,38.2,29.23,NNE,12,0.0,0.0,94,0.00,,,0.00,Wunderground v.1.15,2013-04-24 09:25:00,
2013-04-24 05:30:00,39.9,38.3,29.22,NNE,12,0.0,0.0,94,0.00,,,0.00,Wunderground v.1.15,2013-04-24 09:30:00,
2013-04-24 05:40:00,40.0,38.4,29.22,NNE,12,0.0,0.0,94,0.00,,,0.00,Wunderground v.1.15,2013-04-24 09:40:00,
2013-04-24 05:50:00,40.2,38.6,29.23,NNE,12,0.0,0.0,94,0.00,,,0.00,Wunderground v.1.15,2013-04-24 09:50:00,
2013-04-24 05:55:00,40.4,38.5,29.23,NNE,12,0.0,0.0,93,0.00,,,0.00,Wunderground v.1.15,2013-04-24 09:55:00,
2013-04-24 06:00:00,40.5,38.6,29.23,NNE,12,0.0,0.0,93,0.00,,,0.00,Wunderground v.1.15,2013-04-24 10:00:00,
2013-04-24 06:10:00,40.8,38.7,29.23,NNE,12,0.0,0.0,92,0.00,,,0.00,Wunderground v.1.15,2013-04-24 10:10:00,
2013-04-24 06:15:00,40.8,38.7,29.23,NNE,12,0.0,0.0,92,0.00,,,0.00,Wunderground v.1.15,2013-04-24 10:15:00,
2013-04-24 06:20:00,40.9,38.8,29.23,NNE,12,0.0,0.0,92,0.00,,,0.00,Wunderground v.1.15,2013-04-24 10:20:00,
2013-04-24 06:30:00,41.0,38.9,29.23,NNE,12,0.0,0.0,92,0.00,,,0.00,Wunderground v.1.15,2013-04-24 10:30:00,
2013-04-24 06:40:00,41.3,38.9,29.23,NNE,12,0.0,0.0,91,0.00,,,0.00,Wunderground v.1.15,2013-04-24 10:40:00,
2013-04-24 06:50:00,41.5,39.1,29.23,NNE,12,0.0,0.0,91,0.00,,,0.00,Wunderground v.1.15,2013-04-24 10:50:00,
2013-04-24 06:55:00,41.7,39.3,29.23,NNE,12,0.0,0.0,91,0.00,,,0.00,Wunderground v.1.15,2013-04-24 10:55:00,
2013-04-24 07:05:00,42.1,39.7,29.23,NNE,12,0.0,0.0,91,0.00,,,0.00,Wunderground v.1.15,2013-04-24 11:05:00,
2013-04-24 07:15:00,42.4,39.7,29.23,NNE,12,0.0,0.0,90,0.00,,,0.00,Wunderground v.1.15,2013-04-24 11:15:00,
2013-04-24 07:25:00,42.7,39.7,29.23,NNE,12,0.0,0.0,89,0.00,,,0.00,Wunderground v.1.15,2013-04-24 11:25:00,
2013-04-24 07:35:00,42.9,39.9,29.23,NNE,12,0.0,0.0,89,0.00,,,0.00,Wunderground v.1.15,2013-04-24 11:35:00,
2013-04-24 07:45:00,43.1,39.8,29.23,NNE,12,0.0,0.0,88,0.00,,,0.00,Wunderground v.1.15,2013-04-24 11:45:00,
2013-04-24 07:50:00,43.3,40.0,29.22,NNE,12,0.0,0.0,88,0.00,,,0.00,Wunderground v.1.15,2013-04-24 11:50:00,
2013-04-24 08:00:00,44.7,40.8,29.21,NNE,12,0.0,0.0,86,0.00,,,0.00,Wunderground v.1.15,2013-04-24 12:00:00,
2013-04-24 08:10:00,45.5,42.4,29.21,NNE,12,0.0,0.0,89,0.00,,,0.00,Wunderground v.1.15,2013-04-24 12:10:00,
2013-04-24 08:15:00,45.8,41.5,29.20,NNE,12,0.0,0.0,85,0.00,,,0.00,Wunderground v.1.15,2013-04-24 12:15:00,
2013-04-24 08:20:00,46.0,41.4,29.20,NNE,12,0.0,0.0,84,0.00,,,0.00,Wunderground v.1.15,2013-04-24 12:20:00,
2013-04-24 08:30:00,46.2,41.3,29.19,NNE,12,0.0,0.0,83,0.00,,,0.00,Wunderground v.1.15,2013-04-24 12:30:00,
2013-04-24 08:35:00,46.7,41.8,29.19,NNE,12,0.0,0.0,83,0.00,,,0.00,Wunderground v.1.15,2013-04-24 12:35:00,
2013-04-24 08:45:00,47.4,41.9,29.18,NNE,12,0.0,0.0,81,0.00,,,0.00,Wunderground v.1.15,2013-04-24 12:45:00,
2013-04-24 08:55:00,47.6,42.1,29.18,NNE,12,0.0,0.0,81,0.00,,,0.00,Wunderground v.1.15,2013-04-24 12:55:00,
2013-04-24 09:00:00,47.6,41.7,29.17,NNE,12,0.0,0.0,80,0.00,,,0.00,Wunderground v.1.15,2013-04-24 13:00:00,
2013-04-24 09:10:00,47.7,41.8,29.17,NNE,12,0.0,0.0,80,0.00,,,0.00,Wunderground v.1.15,2013-04-24 13:10:00,
2013-04-24 09:15:00,47.9,42.7,29.16,NNE,12,0.0,0.0,82,0.00,,,0.00,Wunderground v.1.15,2013-04-24 13:15:00,
2013-04-24 09:25:00,48.6,42.7,29.16,NNE,12,0.0,0.0,80,0.00,,,0.00,Wunderground v.1.15,2013-04-24 13:25:00,
2013-04-24 09:35:00,49.2,43.0,29.15,NNE,12,0.0,0.0,79,0.00,,,0.00,Wunderground v.1.15,2013-04-24 13:35:00,
2013-04-24 09:45:00,50.0,43.1,29.15,NNE,12,0.0,0.0,77,0.00,,,0.00,Wunderground v.1.15,2013-04-24 13:45:00,
2013-04-24 09:50:00,50.2,43.3,29.14,NNE,12,0.0,0.0,77,0.00,,,0.00,Wunderground v.1.15,2013-04-24 13:50:00,
2013-04-24 10:00:00,51.2,43.9,29.14,NNE,12,0.0,0.0,76,0.00,,,0.00,Wunderground v.1.15,2013-04-24 14:00:00,
2013-04-24 10:05:00,51.8,44.1,29.13,NNE,12,0.0,0.0,75,0.00,,,0.00,Wunderground v.1.15,2013-04-24 14:05:00,
2013-04-24 10:15:00,52.8,44.4,29.12,NNE,12,0.0,0.0,73,0.00,,,0.00,Wunderground v.1.15,2013-04-24 14:15:00,
2013-04-24 10:20:00,53.0,44.9,29.12,NNE,12,0.0,0.0,74,0.00,,,0.00,Wunderground v.1.15,2013-04-24 14:20:00,
2013-04-24 10:30:00,53.3,45.2,29.12,NNE,12,0.0,0.0,74,0.00,,,0.00,Wunderground v.1.15,2013-04-24 14:30:00,
2013-04-24 10:35:00,53.5,45.4,29.12,NNE,12,0.0,0.0,74,0.00,,,0.00,Wunderground v.1.15,2013-04-24 14:35:00,
2013-04-24 10:40:00,54.1,45.3,29.12,NNE,12,0.0,0.0,72,0.00,,,0.00,Wunderground v.1.15,2013-04-24 14:40:00,
2013-04-24 10:50:00,55.0,45.8,29.12,NNE,12,0.0,0.0,71,0.00,,,0.00,Wunderground v.1.15,2013-04-24 14:50:00,
2013-04-24 10:55:00,55.4,45.0,29.11,NNE,12,0.0,0.0,68,0.00,,,0.00,Wunderground v.1.15,2013-04-24 14:55:00,
2013-04-24 11:00:00,55.8,45.0,29.11,NNE,12,0.0,0.0,67,0.00,,,0.00,Wunderground v.1.15,2013-04-24 15:00:00,
2013-04-24 11:10:00,57.4,46.9,29.11,NNE,12,0.0,0.0,68,0.00,,,0.00,Wunderground v.1.15,2013-04-24 15:10:00,
2013-04-24 11:20:00,58.6,46.5,29.11,NNE,12,0.0,0.0,64,0.00,,,0.00,Wunderground v.1.15,2013-04-24 15:20:00,
2013-04-24 11:25:00,58.7,47.0,29.10,NNE,12,0.0,0.0,65,0.00,,,0.00,Wunderground v.1.15,2013-04-24 15:25:00,
2013-04-24 11:35:00,59.6,46.1,29.10,NNE,12,0.0,0.0,61,0.00,,,0.00,Wunderground v.1.15,2013-04-24 15:35:00,
2013-04-24 11:40:00,60.3,47.2,29.09,NNE,12,0.0,0.0,62,0.00,,,0.00,Wunderground v.1.15,2013-04-24 15:40:00,
2013-04-24 11:50:00,61.6,46.7,29.09,NNE,12,0.0,0.0,58,0.00,,,0.00,Wunderground v.1.15,2013-04-24 15:50:00,
2013-04-24 12:00:00,62.9,47.0,29.08,NNE,12,0.0,0.0,56,0.00,,,0.00,Wunderground v.1.15,2013-04-24 16:00:00,
2013-04-24 12:10:00,63.9,49.3,29.07,NNE,12,0.0,0.0,59,0.00,,,0.00,Wunderground v.1.15,2013-04-24 16:10:00,
2013-04-24 12:15:00,64.3,47.8,29.06,NNE,12,0.0,0.0,55,0.00,,,0.00,Wunderground v.1.15,2013-04-24 16:15:00,
2013-04-24 12:25:00,64.7,47.2,29.05,NNE,12,0.0,0.0,53,0.00,,,0.00,Wunderground v.1.15,2013-04-24 16:25:00,
2013-04-24 12:35:00,65.4,47.3,29.04,NNE,12,0.0,0.0,52,0.00,,,0.00,Wunderground v.1.15,2013-04-24 16:35:00,
2013-04-24 12:45:00,66.0,47.3,29.03,NNE,12,0.0,0.0,51,0.00,,,0.00,Wunderground v.1.15,2013-04-24 16:45:00,
2013-04-24 12:55:00,66.7,48.0,29.03,NNE,12,0.0,0.0,51,0.00,,,0.00,Wunderground v.1.15,2013-04-24 16:55:00,
2013-04-24 13:05:00,66.8,47.6,29.03,NNE,12,0.0,0.0,50,0.00,,,0.00,Wunderground v.1.15,2013-04-24 17:05:00,
2013-04-24 13:10:00,67.0,46.7,29.02,NNE,12,0.0,0.0,48,0.00,,,0.00,Wunderground v.1.15,2013-04-24 17:10:00,
2013-04-24 13:20:00,67.3,46.9,29.01,NNE,12,0.0,0.0,48,0.00,,,0.00,Wunderground v.1.15,2013-04-24 17:20:00,
2013-04-24 13:30:00,67.7,45.6,29.00,NNE,12,0.0,0.0,45,0.00,,,0.00,Wunderground v.1.15,2013-04-24 17:30:00,
2013-04-24 13:35:00,67.9,46.3,29.00,NNE,12,0.0,0.0,46,0.00,,,0.00,Wunderground v.1.15,2013-04-24 17:35:00,
2013-04-24 13:45:00,68.0,47.0,28.99,NNE,12,0.0,0.0,47,0.00,,,0.00,Wunderground v.1.15,2013-04-24 17:45:00,
2013-04-24 13:55:00,69.3,48.2,28.98,NNE,12,0.0,0.0,47,0.00,,,0.00,Wunderground v.1.15,2013-04-24 17:55:00,
2013-04-24 14:05:00,69.6,47.3,28.98,NNE,12,0.0,0.0,45,0.00,,,0.00,Wunderground v.1.15,2013-04-24 18:05:00,
2013-04-24 14:10:00,69.7,46.8,28.98,NNE,12,0.0,0.0,44,0.00,,,0.00,Wunderground v.1.15,2013-04-24 18:10:00,
2013-04-24 14:15:00,70.3,46.7,28.97,NNE,12,0.0,0.0,43,0.00,,,0.00,Wunderground v.1.15,2013-04-24 18:15:00,
2013-04-24 14:25:00,70.6,45.1,28.97,NNE,12,0.0,0.0,40,0.00,,,0.00,Wunderground v.1.15,2013-04-24 18:25:00,
2013-04-24 14:35:00,70.7,45.8,28.97,NNE,12,0.0,0.0,41,0.00,,,0.00,Wunderground v.1.15,2013-04-24 18:35:00,
2013-04-24 14:45:00,70.8,46.6,28.97,NNE,12,0.0,0.0,42,0.00,,,0.00,Wunderground v.1.15,2013-04-24 18:45:00,
2013-04-24 14:50:00,70.7,45.8,28.97,NNE,12,0.0,0.0,41,0.00,,,0.00,Wunderground v.1.15,2013-04-24 18:50:00,
2013-04-24 14:55:00,70.5,45.7,28.97,NNE,12,0.0,0.0,41,0.00,,,0.00,Wunderground v.1.15,2013-04-24 18:55:00,
2013-04-24 15:00:00,70.1,45.9,28.97,NNE,12,0.0,0.0,42,0.00,,,0.00,Wunderground v.1.15,2013-04-24 19:00:00,
2013-04-24 15:10:00,69.8,47.5,28.96,NNE,12,0.0,0.0,45,0.00,,,0.00,Wunderground v.1.15,2013-04-24 19:10:00,
2013-04-24 15:15:00,70.3,46.7,28.96,NNE,12,0.0,0.0,43,0.00,,,0.00,Wunderground v.1.15,2013-04-24 19:15:00,
2013-04-24 15:20:00,70.6,47.0,28.96,NNE,12,0.0,0.0,43,0.00,,,0.00,Wunderground v.1.15,2013-04-24 19:20:00,
2013-04-24 15:30:00,71.0,47.4,28.96,NNE,12,0.0,0.0,43,0.00,,,0.00,Wunderground v.1.15,2013-04-24 19:30:00,
2013-04-24 15:35:00,70.7,47.7,28.96,NNE,12,0.0,0.0,44,0.00,,,0.00,Wunderground v.1.15,2013-04-24 19:35:00,
2013-04-24 15:45:00,70.6,47.0,28.96,NNE,12,0.0,0.0,43,0.00,,,0.00,Wunderground v.1.15,2013-04-24 19:45:00,
2013-04-24 15:55:00,70.3,46.7,28.95,NNE,12,0.0,0.0,43,0.00,,,0.00,Wunderground v.1.15,2013-04-24 19:55:00,
2013-04-24 16:05:00,71.6,47.3,28.95,NNE,12,0.0,0.0,42,0.00,,,0.00,Wunderground v.1.15,2013-04-24 20:05:00,
2013-04-24 16:15:00,71.3,47.0,28.94,NNE,12,0.0,0.0,42,0.00,,,0.00,Wunderground v.1.15,2013-04-24 20:15:00,
2013-04-24 16:20:00,71.4,47.1,28.94,NNE,12,0.0,0.0,42,0.00,,,0.00,Wunderground v.1.15,2013-04-24 20:20:00,
2013-04-24 16:30:00,71.3,47.0,28.93,NNE,12,0.0,0.0,42,0.00,,,0.00,Wunderground v.1.15,2013-04-24 20:30:00,
2013-04-24 16:35:00,71.3,45.1,28.93,NNE,12,0.0,0.0,39,0.00,,,0.00,Wunderground v.1.15,2013-04-24 20:35:00,
2013-04-24 16:40:00,71.3,45.7,28.93,NNE,12,0.0,0.0,40,0.00,,,0.00,Wunderground v.1.15,2013-04-24 20:40:00,
2013-04-24 16:50:00,72.0,46.3,28.93,NNE,12,0.0,0.0,40,0.00,,,0.00,Wunderground v.1.15,2013-04-24 20:50:00,
2013-04-24 16:55:00,72.1,45.8,28.93,NNE,12,0.0,0.0,39,0.00,,,0.00,Wunderground v.1.15,2013-04-24 20:55:00,
2013-04-24 17:05:00,72.2,45.2,28.93,NNE,12,0.0,0.0,38,0.00,,,0.00,Wunderground v.1.15,2013-04-24 21:05:00,
2013-04-24 17:10:00,72.1,45.8,28.93,NNE,12,0.0,0.0,39,0.00,,,0.00,Wunderground v.1.15,2013-04-24 21:10:00,
2013-04-24 17:20:00,72.1,45.1,28.92,NNE,12,0.0,0.0,38,0.00,,,0.00,Wunderground v.1.15,2013-04-24 21:20:00,
2013-04-24 17:30:00,71.8,44.8,28.93,NNE,12,0.0,0.0,38,0.00,,,0.00,Wunderground v.1.15,2013-04-24 21:30:00,
2013-04-24 17:35:00,71.6,45.3,28.93,NNE,12,0.0,0.0,39,0.00,,,0.00,Wunderground v.1.15,2013-04-24 21:35:00,
2013-04-24 17:40:00,71.5,45.2,28.93,NNE,12,0.0,0.0,39,0.00,,,0.00,Wunderground v.1.15,2013-04-24 21:40:00,
2013-04-24 17:45:00,71.3,45.1,28.92,NNE,12,0.0,0.0,39,0.00,,,0.00,Wunderground v.1.15,2013-04-24 21:45:00,
2013-04-24 17:50:00,71.2,45.0,28.92,NNE,12,0.0,0.0,39,0.00,,,0.00,Wunderground v.1.15,2013-04-24 21:50:00,
2013-04-24 18:00:00,70.9,45.4,28.92,NNE,12,0.0,0.0,40,0.00,,,0.00,Wunderground v.1.15,2013-04-24 22:00:00,
2013-04-24 18:10:00,70.5,45.7,28.93,NNE,12,0.0,0.0,41,0.00,,,0.00,Wunderground v.1.15,2013-04-24 22:10:00,
2013-04-24 18:15:00,70.3,45.5,28.92,NNE,12,0.0,0.0,41,0.00,,,0.00,Wunderground v.1.15,2013-04-24 22:15:00,
2013-04-24 18:25:00,69.9,46.4,28.92,NNE,12,0.0,0.0,43,0.00,,,0.00,Wunderground v.1.15,2013-04-24 22:25:00,
2013-04-24 18:35:00,69.5,46.6,28.92,NNE,12,0.0,0.0,44,0.00,,,0.00,Wunderground v.1.15,2013-04-24 22:35:00,
2013-04-24 18:45:00,69.0,46.8,28.92,NNE,12,0.0,0.0,45,0.00,,,0.00,Wunderground v.1.15,2013-04-24 22:45:00,
2013-04-24 18:55:00,68.4,46.8,28.91,NNE,12,0.0,0.0,46,0.00,,,0.00,Wunderground v.1.15,2013-04-24 22:55:00,
2013-04-24 19:00:00,68.1,47.1,28.91,NNE,12,0.0,0.0,47,0.00,,,0.00,Wunderground v.1.15,2013-04-24 23:00:00,
2013-04-24 19:10:00,67.6,47.2,28.92,NNE,12,0.0,0.0,48,0.00,,,0.00,Wunderground v.1.15,2013-04-24 23:10:00,
2013-04-24 19:20:00,67.1,47.3,28.92,NNE,12,0.0,0.0,49,0.00,,,0.00,Wunderground v.1.15,2013-04-24 23:20:00,
2013-04-24 19:30:00,66.3,47.6,28.91,NNE,12,0.0,0.0,51,0.00,,,0.00,Wunderground v.1.15,2013-04-24 23:30:00,
2013-04-24 19:40:00,65.6,47.5,28.92,NNE,12,0.0,0.0,52,0.00,,,0.00,Wunderground v.1.15,2013-04-24 23:40:00,
2013-04-24 19:45:00,65.3,47.7,28.92,NNE,12,0.0,0.0,53,0.00,,,0.00,Wunderground v.1.15,2013-04-24 23:45:00,
2013-04-24 19:55:00,64.6,47.6,28.92,NNE,12,0.0,0.0,54,0.00,,,0.00,Wunderground v.1.15,2013-04-24 23:55:00,
2013-04-24 20:05:00,64.0,47.5,28.92,NNE,12,0.0,0.0,55,0.00,,,0.00,Wunderground v.1.15,2013-04-25 00:05:00,
2013-04-24 20:15:00,63.1,47.6,28.92,NNE,12,0.0,0.0,57,0.00,,,0.00,Wunderground v.1.15,2013-04-25 00:15:00,
2013-04-24 20:20:00,62.7,47.7,28.92,NNE,12,0.0,0.0,58,0.00,,,0.00,Wunderground v.1.15,2013-04-25 00:20:00,
2013-04-24 20:25:00,62.4,47.4,28.92,NNE,12,0.0,0.0,58,0.00,,,0.00,Wunderground v.1.15,2013-04-25 00:25:00,
2013-04-24 20:30:00,62.1,47.6,28.92,NNE,12,0.0,0.0,59,0.00,,,0.00,Wunderground v.1.15,2013-04-25 00:30:00,
2013-04-24 20:40:00,61.4,47.4,28.94,NNE,12,0.0,0.0,60,0.00,,,0.00,Wunderground v.1.15,2013-04-25 00:40:00,
2013-04-24 20:50:00,60.5,47.4,28.95,NNE,12,0.0,0.0,62,0.00,,,0.00,Wunderground v.1.15,2013-04-25 00:50:00,
2013-04-24 21:00:00,59.6,47.0,28.96,NNE,12,0.0,0.0,63,0.00,,,0.00,Wunderground v.1.15,2013-04-25 01:00:00,
2013-04-24 21:10:00,59.0,47.2,28.97,NNE,12,0.0,0.0,65,0.00,,,0.00,Wunderground v.1.15,2013-04-25 01:10:00,
2013-04-24 21:20:00,58.2,47.3,28.97,NNE,12,0.0,0.0,67,0.00,,,0.00,Wunderground v.1.15,2013-04-25 01:20:00,
2013-04-24 21:30:00,57.7,47.2,28.97,NNE,12,0.0,0.0,68,0.00,,,0.00,Wunderground v.1.15,2013-04-25 01:30:00,
2013-04-24 21:35:00,57.5,47.4,28.96,NNE,12,0.0,0.0,69,0.00,,,0.00,Wunderground v.1.15,2013-04-25 01:35:00,
2013-04-24 21:45:00,57.1,47.4,28.95,NNE,12,0.0,0.0,70,0.00,,,0.00,Wunderground v.1.15,2013-04-25 01:45:00,
2013-04-24 21:55:00,56.7,47.4,28.96,NNE,12,0.0,0.0,71,0.00,,,0.00,Wunderground v.1.15,2013-04-25 01:55:00,
2013-04-24 22:00:00,56.6,47.3,28.96,NNE,12,0.0,0.0,71,0.00,,,0.00,Wunderground v.1.15,2013-04-25 02:00:00,
2013-04-24 22:10:00,56.3,47.4,28.95,NNE,12,0.0,0.0,72,0.00,,,0.00,Wunderground v.1.15,2013-04-25 02:10:00,
2013-04-24 22:20:00,56.0,47.5,28.95,NNE,12,0.0,0.0,73,0.00,,,0.00,Wunderground v.1.15,2013-04-25 02:20:00,
2013-04-24 22:30:00,55.6,47.4,28.95,NNE,12,0.0,0.0,74,0.00,,,0.00,Wunderground v.1.15,2013-04-25 02:30:00,
2013-04-24 22:40:00,55.2,47.4,28.95,NNE,12,0.0,0.0,75,0.00,,,0.00,Wunderground v.1.15,2013-04-25 02:40:00,
2013-04-24 22:45:00,55.1,47.7,28.95,NNE,12,0.0,0.0,76,0.00,,,0.00,Wunderground v.1.15,2013-04-25 02:45:00,
2013-04-24 22:55:00,54.8,47.7,28.96,NNE,12,0.0,0.0,77,0.00,,,0.00,Wunderground v.1.15,2013-04-25 02:55:00,
2013-04-24 23:00:00,54.6,47.5,28.95,NNE,12,0.0,0.0,77,0.00,,,0.00,Wunderground v.1.15,2013-04-25 03:00:00,
2013-04-24 23:10:00,54.1,48.1,28.95,NNE,12,0.0,0.0,80,0.00,,,0.00,Wunderground v.1.15,2013-04-25 03:10:00,
2013-04-24 23:15:00,53.8,48.1,28.95,NNE,12,0.0,0.0,81,0.00,,,0.00,Wunderground v.1.15,2013-04-25 03:15:00,
2013-04-24 23:25:00,53.1,47.7,28.94,NNE,12,0.0,0.0,82,0.00,,,0.00,Wunderground v.1.15,2013-04-25 03:25:00,
2013-04-24 23:35:00,52.6,47.9,28.95,NNE,12,0.0,0.0,84,0.00,,,0.00,Wunderground v.1.15,2013-04-25 03:35:00,
2013-04-24 23:45:00,52.0,47.6,28.94,NNE,12,0.0,0.0,85,0.00,,,0.00,Wunderground v.1.15,2013-04-25 03:45:00,
2013-04-24 23:55:00,51.7,47.3,28.94,NNE,12,0.0,0.0,85,0.00,,,0.00,Wunderground v.1.15,2013-04-25 03:55:00,